sensor_id;sensor_type;location;lat;lon;timestamp;temperature;humidity
66312;HTU21D;53114;51.138;6.008;2022-09-09T00:04:00;15.38;118.99
66312;HTU21D;53114;51.138;6.008;2022-09-09T00:06:42;15.34;118.99
66312;HTU21D;53114;51.138;6.008;2022-09-09T00:09:19;15.31;118.99
66312;HTU21D;53114;51.138;6.008;2022-09-09T00:11:50;15.29;118.99
66312;HTU21D;53114;51.138;6.008;2022-09-09T00:14:25;15.28;118.99
66312;HTU21D;53114;51.138;6.008;2022-09-09T00:17:04;15.24;118.99
66312;HTU21D;53114;51.138;6.008;2022-09-09T00:19:47;15.17;118.99
66312;HTU21D;53114;51.138;6.008;2022-09-09T00:22:21;15.15;118.99
66312;HTU21D;53114;51.138;6.008;2022-09-09T00:24:52;15.12;118.99
66312;HTU21D;53114;51.138;6.008;2022-09-09T00:32:44;15.04;118.99
66312;HTU21D;53114;51.138;6.008;2022-09-09T00:37:38;14.99;118.99
66312;HTU21D;53114;51.138;6.008;2022-09-09T00:40:24;14.98;118.99
66312;HTU21D;53114;51.138;6.008;2022-09-09T00:43:21;14.97;118.99
66312;HTU21D;53114;51.138;6.008;2022-09-09T00:48:26;14.92;118.99
66312;HTU21D;53114;51.138;6.008;2022-09-09T00:51:00;14.91;118.99
66312;HTU21D;53114;51.138;6.008;2022-09-09T00:57:02;14.88;118.99
66312;HTU21D;53114;51.138;6.008;2022-09-09T00:59:45;14.84;118.99
66312;HTU21D;53114;51.138;6.008;2022-09-09T01:02:34;14.81;118.99
66312;HTU21D;53114;51.138;6.008;2022-09-09T01:05:15;14.79;118.99
66312;HTU21D;53114;51.138;6.008;2022-09-09T01:07:47;14.78;118.99
66312;HTU21D;53114;51.138;6.008;2022-09-09T01:10:39;14.78;118.99
66312;HTU21D;53114;51.138;6.008;2022-09-09T01:13:17;14.78;118.99
66312;HTU21D;53114;51.138;6.008;2022-09-09T01:15:48;14.74;118.99
66312;HTU21D;53114;51.138;6.008;2022-09-09T01:18:19;14.73;118.99
66312;HTU21D;53114;51.138;6.008;2022-09-09T01:23:56;14.81;118.99
66312;HTU21D;53114;51.138;6.008;2022-09-09T01:26:41;14.81;118.99
66312;HTU21D;53114;51.138;6.008;2022-09-09T01:29:16;14.80;118.99
66312;HTU21D;53114;51.138;6.008;2022-09-09T01:34:30;14.75;118.99
66312;HTU21D;53114;51.138;6.008;2022-09-09T01:37:08;14.73;118.99
66312;HTU21D;53114;51.138;6.008;2022-09-09T01:39:39;14.77;118.99
66312;HTU21D;53114;51.138;6.008;2022-09-09T01:42:13;14.77;118.99
66312;HTU21D;53114;51.138;6.008;2022-09-09T01:44:40;14.74;118.99
66312;HTU21D;53114;51.138;6.008;2022-09-09T01:47:08;14.75;118.99
66312;HTU21D;53114;51.138;6.008;2022-09-09T01:49:41;14.70;118.99
66312;HTU21D;53114;51.138;6.008;2022-09-09T01:52:16;14.69;118.99
66312;HTU21D;53114;51.138;6.008;2022-09-09T01:54:42;14.70;118.99
66312;HTU21D;53114;51.138;6.008;2022-09-09T02:03:01;14.80;118.99
66312;HTU21D;53114;51.138;6.008;2022-09-09T02:08:39;14.86;118.99
66312;HTU21D;53114;51.138;6.008;2022-09-09T02:11:17;14.91;118.99
66312;HTU21D;53114;51.138;6.008;2022-09-09T02:14:26;14.88;118.99
66312;HTU21D;53114;51.138;6.008;2022-09-09T02:17:09;14.80;118.99
66312;HTU21D;53114;51.138;6.008;2022-09-09T02:20:09;14.72;118.99
66312;HTU21D;53114;51.138;6.008;2022-09-09T02:22:49;14.64;118.99
66312;HTU21D;53114;51.138;6.008;2022-09-09T02:25:22;14.59;118.99
66312;HTU21D;53114;51.138;6.008;2022-09-09T02:27:51;14.59;118.99
66312;HTU21D;53114;51.138;6.008;2022-09-09T02:30:19;14.62;118.99
66312;HTU21D;53114;51.138;6.008;2022-09-09T02:32:55;14.63;118.99
66312;HTU21D;53114;51.138;6.008;2022-09-09T02:35:29;14.58;118.99
66312;HTU21D;53114;51.138;6.008;2022-09-09T02:38:01;14.65;118.99
66312;HTU21D;53114;51.138;6.008;2022-09-09T02:40:29;14.64;118.99
66312;HTU21D;53114;51.138;6.008;2022-09-09T02:42:59;14.69;118.99
66312;HTU21D;53114;51.138;6.008;2022-09-09T02:45:37;14.71;118.99
66312;HTU21D;53114;51.138;6.008;2022-09-09T02:48:25;14.72;118.99
66312;HTU21D;53114;51.138;6.008;2022-09-09T02:53:43;14.68;118.99
66312;HTU21D;53114;51.138;6.008;2022-09-09T02:56:21;14.67;118.99
66312;HTU21D;53114;51.138;6.008;2022-09-09T02:58:49;14.68;118.99
66312;HTU21D;53114;51.138;6.008;2022-09-09T03:01:17;14.70;118.99
66312;HTU21D;53114;51.138;6.008;2022-09-09T03:03:43;14.73;118.99
66312;HTU21D;53114;51.138;6.008;2022-09-09T03:06:14;14.74;118.99
66312;HTU21D;53114;51.138;6.008;2022-09-09T03:08:40;14.74;118.99
66312;HTU21D;53114;51.138;6.008;2022-09-09T03:11:08;14.80;118.99
66312;HTU21D;53114;51.138;6.008;2022-09-09T03:13:36;14.83;118.99
66312;HTU21D;53114;51.138;6.008;2022-09-09T03:16:07;14.85;118.99
66312;HTU21D;53114;51.138;6.008;2022-09-09T03:18:40;14.81;118.99
66312;HTU21D;53114;51.138;6.008;2022-09-09T03:21:06;14.80;118.99
66312;HTU21D;53114;51.138;6.008;2022-09-09T03:23:32;14.81;118.99
66312;HTU21D;53114;51.138;6.008;2022-09-09T03:26:01;14.79;118.99
66312;HTU21D;53114;51.138;6.008;2022-09-09T03:28:37;14.80;118.99
66312;HTU21D;53114;51.138;6.008;2022-09-09T03:31:05;14.78;118.99
66312;HTU21D;53114;51.138;6.008;2022-09-09T03:33:37;14.80;118.99
66312;HTU21D;53114;51.138;6.008;2022-09-09T03:36:04;14.85;118.99
66312;HTU21D;53114;51.138;6.008;2022-09-09T03:38:31;14.86;118.99
66312;HTU21D;53114;51.138;6.008;2022-09-09T03:40:58;14.88;118.99
66312;HTU21D;53114;51.138;6.008;2022-09-09T03:43:26;14.94;118.99
66312;HTU21D;53114;51.138;6.008;2022-09-09T03:45:53;15.02;118.99
66312;HTU21D;53114;51.138;6.008;2022-09-09T03:48:23;15.12;118.99
66312;HTU21D;53114;51.138;6.008;2022-09-09T03:50:53;15.23;118.99
66312;HTU21D;53114;51.138;6.008;2022-09-09T03:53:24;15.36;118.99
66312;HTU21D;53114;51.138;6.008;2022-09-09T03:55:52;15.43;118.99
66312;HTU21D;53114;51.138;6.008;2022-09-09T03:58:23;15.41;118.99
66312;HTU21D;53114;51.138;6.008;2022-09-09T04:00:58;15.39;118.99
66312;HTU21D;53114;51.138;6.008;2022-09-09T04:03:27;15.37;118.99
66312;HTU21D;53114;51.138;6.008;2022-09-09T04:05:56;15.36;118.99
66312;HTU21D;53114;51.138;6.008;2022-09-09T04:08:25;15.38;118.99
66312;HTU21D;53114;51.138;6.008;2022-09-09T04:10:52;15.40;118.99
66312;HTU21D;53114;51.138;6.008;2022-09-09T04:13:19;15.46;118.99
66312;HTU21D;53114;51.138;6.008;2022-09-09T04:15:54;15.57;118.99
66312;HTU21D;53114;51.138;6.008;2022-09-09T04:18:21;15.62;118.99
66312;HTU21D;53114;51.138;6.008;2022-09-09T04:20:49;15.67;118.99
66312;HTU21D;53114;51.138;6.008;2022-09-09T04:23:19;15.67;118.99
66312;HTU21D;53114;51.138;6.008;2022-09-09T04:25:47;15.68;118.99
66312;HTU21D;53114;51.138;6.008;2022-09-09T04:28:16;15.69;118.99
66312;HTU21D;53114;51.138;6.008;2022-09-09T04:30:44;15.71;118.99
66312;HTU21D;53114;51.138;6.008;2022-09-09T04:33:11;15.75;118.99
66312;HTU21D;53114;51.138;6.008;2022-09-09T04:35:38;15.80;118.99
66312;HTU21D;53114;51.138;6.008;2022-09-09T04:38:05;15.83;118.99
66312;HTU21D;53114;51.138;6.008;2022-09-09T04:40:33;15.84;118.99
66312;HTU21D;53114;51.138;6.008;2022-09-09T04:43:01;15.87;118.99
66312;HTU21D;53114;51.138;6.008;2022-09-09T04:45:27;15.89;118.99
66312;HTU21D;53114;51.138;6.008;2022-09-09T04:47:53;15.89;118.99
66312;HTU21D;53114;51.138;6.008;2022-09-09T04:50:20;15.93;118.99
66312;HTU21D;53114;51.138;6.008;2022-09-09T04:52:46;15.93;118.99
66312;HTU21D;53114;51.138;6.008;2022-09-09T04:55:13;15.96;118.99
66312;HTU21D;53114;51.138;6.008;2022-09-09T04:57:41;15.99;118.99
66312;HTU21D;53114;51.138;6.008;2022-09-09T05:00:11;16.00;118.99
66312;HTU21D;53114;51.138;6.008;2022-09-09T05:02:40;16.00;118.99
66312;HTU21D;53114;51.138;6.008;2022-09-09T05:05:08;15.99;118.99
66312;HTU21D;53114;51.138;6.008;2022-09-09T05:07:35;16.01;118.99
66312;HTU21D;53114;51.138;6.008;2022-09-09T05:10:02;16.02;118.99
66312;HTU21D;53114;51.138;6.008;2022-09-09T05:12:30;16.05;118.99
66312;HTU21D;53114;51.138;6.008;2022-09-09T05:14:57;16.05;118.99
66312;HTU21D;53114;51.138;6.008;2022-09-09T05:17:23;16.05;118.99
66312;HTU21D;53114;51.138;6.008;2022-09-09T05:19:49;16.02;118.99
66312;HTU21D;53114;51.138;6.008;2022-09-09T05:22:20;15.99;118.99
66312;HTU21D;53114;51.138;6.008;2022-09-09T05:24:47;15.95;118.99
66312;HTU21D;53114;51.138;6.008;2022-09-09T05:27:17;15.91;118.99
66312;HTU21D;53114;51.138;6.008;2022-09-09T05:29:46;15.91;118.99
66312;HTU21D;53114;51.138;6.008;2022-09-09T05:32:13;15.91;118.99
66312;HTU21D;53114;51.138;6.008;2022-09-09T05:34:41;15.86;118.99
66312;HTU21D;53114;51.138;6.008;2022-09-09T05:37:07;15.80;118.99
66312;HTU21D;53114;51.138;6.008;2022-09-09T05:39:34;15.74;118.99
66312;HTU21D;53114;51.138;6.008;2022-09-09T05:42:02;15.72;118.99
66312;HTU21D;53114;51.138;6.008;2022-09-09T05:44:31;15.76;118.99
66312;HTU21D;53114;51.138;6.008;2022-09-09T05:46:58;15.84;118.99
66312;HTU21D;53114;51.138;6.008;2022-09-09T05:49:24;15.91;118.99
66312;HTU21D;53114;51.138;6.008;2022-09-09T05:51:50;16.00;118.99
66312;HTU21D;53114;51.138;6.008;2022-09-09T05:54:18;16.02;118.99
66312;HTU21D;53114;51.138;6.008;2022-09-09T05:56:52;16.05;118.99
66312;HTU21D;53114;51.138;6.008;2022-09-09T05:59:20;16.06;118.99
66312;HTU21D;53114;51.138;6.008;2022-09-09T06:01:50;16.05;118.99
66312;HTU21D;53114;51.138;6.008;2022-09-09T06:04:31;16.07;118.99
66312;HTU21D;53114;51.138;6.008;2022-09-09T06:07:00;16.10;118.99
66312;HTU21D;53114;51.138;6.008;2022-09-09T06:09:27;16.08;118.99
66312;HTU21D;53114;51.138;6.008;2022-09-09T06:11:54;16.08;118.99
66312;HTU21D;53114;51.138;6.008;2022-09-09T06:14:22;16.07;118.99
66312;HTU21D;53114;51.138;6.008;2022-09-09T06:16:49;16.01;118.99
66312;HTU21D;53114;51.138;6.008;2022-09-09T06:19:23;16.01;118.99
66312;HTU21D;53114;51.138;6.008;2022-09-09T06:21:53;16.01;118.99
66312;HTU21D;53114;51.138;6.008;2022-09-09T06:24:21;16.03;118.99
66312;HTU21D;53114;51.138;6.008;2022-09-09T06:26:48;16.04;118.99
66312;HTU21D;53114;51.138;6.008;2022-09-09T06:29:21;16.07;118.99
66312;HTU21D;53114;51.138;6.008;2022-09-09T06:31:47;16.15;118.99
66312;HTU21D;53114;51.138;6.008;2022-09-09T06:34:20;16.28;118.99
66312;HTU21D;53114;51.138;6.008;2022-09-09T06:36:49;16.35;118.99
66312;HTU21D;53114;51.138;6.008;2022-09-09T06:39:17;16.48;118.99
66312;HTU21D;53114;51.138;6.008;2022-09-09T06:41:44;16.64;118.99
66312;HTU21D;53114;51.138;6.008;2022-09-09T06:44:29;16.78;118.99
66312;HTU21D;53114;51.138;6.008;2022-09-09T06:46:57;16.88;118.99
66312;HTU21D;53114;51.138;6.008;2022-09-09T06:49:23;16.96;118.99
66312;HTU21D;53114;51.138;6.008;2022-09-09T06:51:49;17.06;118.99
66312;HTU21D;53114;51.138;6.008;2022-09-09T06:54:16;17.18;118.99
66312;HTU21D;53114;51.138;6.008;2022-09-09T06:56:44;17.25;118.99
66312;HTU21D;53114;51.138;6.008;2022-09-09T06:59:17;17.36;118.99
66312;HTU21D;53114;51.138;6.008;2022-09-09T07:01:44;17.53;118.99
66312;HTU21D;53114;51.138;6.008;2022-09-09T07:04:12;17.70;118.99
66312;HTU21D;53114;51.138;6.008;2022-09-09T07:06:44;17.76;118.99
66312;HTU21D;53114;51.138;6.008;2022-09-09T07:09:15;17.77;118.99
66312;HTU21D;53114;51.138;6.008;2022-09-09T07:11:49;17.80;118.99
66312;HTU21D;53114;51.138;6.008;2022-09-09T07:14:19;17.77;118.99
66312;HTU21D;53114;51.138;6.008;2022-09-09T07:16:48;17.70;118.99
66312;HTU21D;53114;51.138;6.008;2022-09-09T07:19:16;17.60;118.99
66312;HTU21D;53114;51.138;6.008;2022-09-09T07:21:44;17.45;118.99
66312;HTU21D;53114;51.138;6.008;2022-09-09T07:24:12;17.37;118.99
66312;HTU21D;53114;51.138;6.008;2022-09-09T07:26:41;17.47;118.99
66312;HTU21D;53114;51.138;6.008;2022-09-09T07:29:08;17.45;118.99
66312;HTU21D;53114;51.138;6.008;2022-09-09T07:31:37;17.37;118.99
66312;HTU21D;53114;51.138;6.008;2022-09-09T07:34:07;17.26;118.99
66312;HTU21D;53114;51.138;6.008;2022-09-09T07:36:38;17.25;118.99
66312;HTU21D;53114;51.138;6.008;2022-09-09T07:39:09;17.25;118.99
66312;HTU21D;53114;51.138;6.008;2022-09-09T07:41:45;17.24;118.99
66312;HTU21D;53114;51.138;6.008;2022-09-09T07:44:18;17.24;118.99
66312;HTU21D;53114;51.138;6.008;2022-09-09T07:46:47;17.26;118.99
66312;HTU21D;53114;51.138;6.008;2022-09-09T07:49:18;17.31;118.99
66312;HTU21D;53114;51.138;6.008;2022-09-09T07:51:46;17.43;118.99
66312;HTU21D;53114;51.138;6.008;2022-09-09T07:54:16;17.60;118.99
66312;HTU21D;53114;51.138;6.008;2022-09-09T07:56:44;17.95;118.99
66312;HTU21D;53114;51.138;6.008;2022-09-09T07:59:11;18.30;118.99
66312;HTU21D;53114;51.138;6.008;2022-09-09T08:01:44;18.64;118.99
66312;HTU21D;53114;51.138;6.008;2022-09-09T08:04:17;18.91;118.99
66312;HTU21D;53114;51.138;6.008;2022-09-09T08:06:54;19.12;118.99
66312;HTU21D;53114;51.138;6.008;2022-09-09T08:09:24;19.25;118.99
66312;HTU21D;53114;51.138;6.008;2022-09-09T08:11:53;19.23;118.99
66312;HTU21D;53114;51.138;6.008;2022-09-09T08:14:19;19.05;118.99
66312;HTU21D;53114;51.138;6.008;2022-09-09T08:16:47;18.78;118.99
66312;HTU21D;53114;51.138;6.008;2022-09-09T08:19:16;18.57;118.99
66312;HTU21D;53114;51.138;6.008;2022-09-09T08:21:45;18.38;118.99
66312;HTU21D;53114;51.138;6.008;2022-09-09T08:24:12;18.32;118.99
66312;HTU21D;53114;51.138;6.008;2022-09-09T08:26:42;18.26;118.99
66312;HTU21D;53114;51.138;6.008;2022-09-09T08:29:11;18.33;118.99
66312;HTU21D;53114;51.138;6.008;2022-09-09T08:31:40;18.48;118.99
66312;HTU21D;53114;51.138;6.008;2022-09-09T08:34:07;18.47;118.99
66312;HTU21D;53114;51.138;6.008;2022-09-09T08:36:38;18.61;118.99
66312;HTU21D;53114;51.138;6.008;2022-09-09T08:39:06;18.79;118.99
66312;HTU21D;53114;51.138;6.008;2022-09-09T08:47:39;19.53;118.99
66312;HTU21D;53114;51.138;6.008;2022-09-09T08:50:29;19.60;118.99
66312;HTU21D;53114;51.138;6.008;2022-09-09T08:53:15;20.01;118.99
66312;HTU21D;53114;51.138;6.008;2022-09-09T08:55:52;20.74;118.99
66312;HTU21D;53114;51.138;6.008;2022-09-09T08:58:32;21.34;118.99
66312;HTU21D;53114;51.138;6.008;2022-09-09T09:06:40;21.53;118.99
66312;HTU21D;53114;51.138;6.008;2022-09-09T09:11:50;20.57;118.99
66312;HTU21D;53114;51.138;6.008;2022-09-09T09:14:22;20.42;118.99
66312;HTU21D;53114;51.138;6.008;2022-09-09T09:17:05;20.39;118.99
66312;HTU21D;53114;51.138;6.008;2022-09-09T09:19:39;20.33;118.99
66312;HTU21D;53114;51.138;6.008;2022-09-09T09:22:20;20.19;118.99
66312;HTU21D;53114;51.138;6.008;2022-09-09T09:25:31;19.98;118.99
66312;HTU21D;53114;51.138;6.008;2022-09-09T09:30:31;19.48;118.99
66312;HTU21D;53114;51.138;6.008;2022-09-09T09:35:56;19.16;118.99
66312;HTU21D;53114;51.138;6.008;2022-09-09T09:38:27;19.03;118.99
66312;HTU21D;53114;51.138;6.008;2022-09-09T09:40:58;18.99;118.99
66312;HTU21D;53114;51.138;6.008;2022-09-09T09:43:37;19.05;118.99
66312;HTU21D;53114;51.138;6.008;2022-09-09T09:46:24;19.39;118.99
66312;HTU21D;53114;51.138;6.008;2022-09-09T09:49:02;19.81;118.99
66312;HTU21D;53114;51.138;6.008;2022-09-09T09:51:32;19.91;118.99
66312;HTU21D;53114;51.138;6.008;2022-09-09T09:54:14;19.88;118.99
66312;HTU21D;53114;51.138;6.008;2022-09-09T09:56:45;19.74;118.99
66312;HTU21D;53114;51.138;6.008;2022-09-09T10:01:50;19.41;118.99
66312;HTU21D;53114;51.138;6.008;2022-09-09T10:04:23;19.33;118.99
66312;HTU21D;53114;51.138;6.008;2022-09-09T10:06:52;19.26;118.99
66312;HTU21D;53114;51.138;6.008;2022-09-09T10:09:30;19.23;118.99
66312;HTU21D;53114;51.138;6.008;2022-09-09T10:17:16;19.47;118.99
66312;HTU21D;53114;51.138;6.008;2022-09-09T10:20:34;19.54;118.99
66312;HTU21D;53114;51.138;6.008;2022-09-09T10:23:23;19.51;118.99
66312;HTU21D;53114;51.138;6.008;2022-09-09T10:26:12;19.32;118.99
66312;HTU21D;53114;51.138;6.008;2022-09-09T10:32:28;19.28;118.99
66312;HTU21D;53114;51.138;6.008;2022-09-09T10:35:12;19.53;118.99
66312;HTU21D;53114;51.138;6.008;2022-09-09T10:40:31;19.82;118.99
66312;HTU21D;53114;51.138;6.008;2022-09-09T10:48:42;19.95;118.99
66312;HTU21D;53114;51.138;6.008;2022-09-09T10:51:42;20.05;118.99
66312;HTU21D;53114;51.138;6.008;2022-09-09T10:54:28;20.17;118.99
66312;HTU21D;53114;51.138;6.008;2022-09-09T10:57:03;20.16;118.99
66312;HTU21D;53114;51.138;6.008;2022-09-09T10:59:37;20.15;118.99
66312;HTU21D;53114;51.138;6.008;2022-09-09T11:02:16;20.10;118.99
66312;HTU21D;53114;51.138;6.008;2022-09-09T11:04:53;20.05;118.99
66312;HTU21D;53114;51.138;6.008;2022-09-09T11:07:44;19.97;118.99
66312;HTU21D;53114;51.138;6.008;2022-09-09T11:10:26;19.95;118.99
66312;HTU21D;53114;51.138;6.008;2022-09-09T11:13:00;20.05;118.99
66312;HTU21D;53114;51.138;6.008;2022-09-09T11:15:36;19.95;118.99
66312;HTU21D;53114;51.138;6.008;2022-09-09T11:18:11;19.90;118.99
66312;HTU21D;53114;51.138;6.008;2022-09-09T11:20:39;19.83;118.99
66312;HTU21D;53114;51.138;6.008;2022-09-09T11:23:17;19.82;118.99
66312;HTU21D;53114;51.138;6.008;2022-09-09T11:25:52;19.71;118.99
66312;HTU21D;53114;51.138;6.008;2022-09-09T11:40:24;18.80;118.99
66312;HTU21D;53114;51.138;6.008;2022-09-09T11:43:15;18.87;118.99
66312;HTU21D;53114;51.138;6.008;2022-09-09T11:45:52;19.21;118.99
66312;HTU21D;53114;51.138;6.008;2022-09-09T11:51:01;19.91;118.99
66312;HTU21D;53114;51.138;6.008;2022-09-09T11:53:28;20.14;118.99
66312;HTU21D;53114;51.138;6.008;2022-09-09T11:56:12;20.36;118.99
66312;HTU21D;53114;51.138;6.008;2022-09-09T11:59:03;20.50;118.99
66312;HTU21D;53114;51.138;6.008;2022-09-09T12:04:35;20.68;118.99
66312;HTU21D;53114;51.138;6.008;2022-09-09T12:09:43;20.65;118.99
66312;HTU21D;53114;51.138;6.008;2022-09-09T12:17:30;20.78;118.99
66312;HTU21D;53114;51.138;6.008;2022-09-09T12:20:22;20.91;118.99
66312;HTU21D;53114;51.138;6.008;2022-09-09T12:25:40;21.15;118.99
66312;HTU21D;53114;51.138;6.008;2022-09-09T12:33:37;21.07;118.99
66312;HTU21D;53114;51.138;6.008;2022-09-09T12:36:12;21.07;118.99
66312;HTU21D;53114;51.138;6.008;2022-09-09T12:38:43;21.11;118.99
66312;HTU21D;53114;51.138;6.008;2022-09-09T12:41:24;21.09;118.99
66312;HTU21D;53114;51.138;6.008;2022-09-09T12:43:51;21.09;118.99
66312;HTU21D;53114;51.138;6.008;2022-09-09T12:46:35;21.32;118.99
66312;HTU21D;53114;51.138;6.008;2022-09-09T12:49:03;21.57;118.99
66312;HTU21D;53114;51.138;6.008;2022-09-09T12:51:32;21.51;118.99
66312;HTU21D;53114;51.138;6.008;2022-09-09T12:53:59;21.34;118.99
66312;HTU21D;53114;51.138;6.008;2022-09-09T12:56:29;21.11;118.99
66312;HTU21D;53114;51.138;6.008;2022-09-09T12:58:58;20.88;118.99
66312;HTU21D;53114;51.138;6.008;2022-09-09T13:01:27;20.51;118.99
66312;HTU21D;53114;51.138;6.008;2022-09-09T13:03:54;20.11;118.99
66312;HTU21D;53114;51.138;6.008;2022-09-09T13:06:27;19.89;118.99
66312;HTU21D;53114;51.138;6.008;2022-09-09T13:08:59;19.75;118.99
66312;HTU21D;53114;51.138;6.008;2022-09-09T13:11:45;19.60;118.99
66312;HTU21D;53114;51.138;6.008;2022-09-09T13:14:29;19.59;118.99
66312;HTU21D;53114;51.138;6.008;2022-09-09T13:17:03;19.20;118.99
66312;HTU21D;53114;51.138;6.008;2022-09-09T13:19:35;18.69;118.99
66312;HTU21D;53114;51.138;6.008;2022-09-09T13:22:23;18.17;118.99
66312;HTU21D;53114;51.138;6.008;2022-09-09T13:27:41;17.36;118.99
66312;HTU21D;53114;51.138;6.008;2022-09-09T13:32:48;16.94;118.99
66312;HTU21D;53114;51.138;6.008;2022-09-09T13:35:24;16.87;118.99
66312;HTU21D;53114;51.138;6.008;2022-09-09T13:37:50;16.86;118.99
66312;HTU21D;53114;51.138;6.008;2022-09-09T13:40:19;16.79;118.99
66312;HTU21D;53114;51.138;6.008;2022-09-09T13:42:45;16.62;118.99
66312;HTU21D;53114;51.138;6.008;2022-09-09T13:45:18;16.50;118.99
66312;HTU21D;53114;51.138;6.008;2022-09-09T13:47:49;16.43;118.99
66312;HTU21D;53114;51.138;6.008;2022-09-09T13:52:54;16.35;118.99
66312;HTU21D;53114;51.138;6.008;2022-09-09T13:55:24;16.45;118.99
66312;HTU21D;53114;51.138;6.008;2022-09-09T14:00:17;16.64;118.99
66312;HTU21D;53114;51.138;6.008;2022-09-09T14:02:43;16.79;118.99
66312;HTU21D;53114;51.138;6.008;2022-09-09T14:05:10;16.86;118.99
66312;HTU21D;53114;51.138;6.008;2022-09-09T14:07:39;16.87;118.99
66312;HTU21D;53114;51.138;6.008;2022-09-09T14:10:06;17.04;118.99
66312;HTU21D;53114;51.138;6.008;2022-09-09T14:12:32;17.21;118.99
66312;HTU21D;53114;51.138;6.008;2022-09-09T14:14:58;17.34;118.99
66312;HTU21D;53114;51.138;6.008;2022-09-09T14:17:25;17.46;118.99
66312;HTU21D;53114;51.138;6.008;2022-09-09T14:19:57;17.70;118.99
66312;HTU21D;53114;51.138;6.008;2022-09-09T14:22:23;17.91;118.99
66312;HTU21D;53114;51.138;6.008;2022-09-09T14:24:49;18.22;118.99
66312;HTU21D;53114;51.138;6.008;2022-09-09T14:27:17;18.39;118.99
66312;HTU21D;53114;51.138;6.008;2022-09-09T14:29:44;18.52;118.99
66312;HTU21D;53114;51.138;6.008;2022-09-09T14:32:11;18.79;118.99
66312;HTU21D;53114;51.138;6.008;2022-09-09T14:34:37;19.01;118.99
66312;HTU21D;53114;51.138;6.008;2022-09-09T14:37:03;19.24;118.99
66312;HTU21D;53114;51.138;6.008;2022-09-09T14:39:29;19.43;118.99
66312;HTU21D;53114;51.138;6.008;2022-09-09T14:41:55;19.52;118.99
66312;HTU21D;53114;51.138;6.008;2022-09-09T14:44:21;19.52;118.99
66312;HTU21D;53114;51.138;6.008;2022-09-09T14:46:47;19.53;118.99
66312;HTU21D;53114;51.138;6.008;2022-09-09T14:49:16;19.59;118.99
66312;HTU21D;53114;51.138;6.008;2022-09-09T14:51:42;19.63;118.99
66312;HTU21D;53114;51.138;6.008;2022-09-09T14:54:07;19.61;118.99
66312;HTU21D;53114;51.138;6.008;2022-09-09T14:56:34;19.50;118.99
66312;HTU21D;53114;51.138;6.008;2022-09-09T14:59:00;19.43;118.99
66312;HTU21D;53114;51.138;6.008;2022-09-09T15:01:30;19.56;118.99
66312;HTU21D;53114;51.138;6.008;2022-09-09T15:03:59;19.84;118.99
66312;HTU21D;53114;51.138;6.008;2022-09-09T15:06:32;20.07;118.99
66312;HTU21D;53114;51.138;6.008;2022-09-09T15:08:59;20.11;118.99
66312;HTU21D;53114;51.138;6.008;2022-09-09T15:11:28;20.01;118.99
66312;HTU21D;53114;51.138;6.008;2022-09-09T15:13:56;20.05;118.99
66312;HTU21D;53114;51.138;6.008;2022-09-09T15:16:25;20.21;118.99
66312;HTU21D;53114;51.138;6.008;2022-09-09T15:18:54;20.32;118.99
66312;HTU21D;53114;51.138;6.008;2022-09-09T15:21:22;20.43;118.99
66312;HTU21D;53114;51.138;6.008;2022-09-09T15:23:48;20.51;118.99
66312;HTU21D;53114;51.138;6.008;2022-09-09T15:26:15;20.53;118.99
66312;HTU21D;53114;51.138;6.008;2022-09-09T15:28:43;20.51;118.99
66312;HTU21D;53114;51.138;6.008;2022-09-09T15:31:12;20.53;118.99
66312;HTU21D;53114;51.138;6.008;2022-09-09T15:33:40;20.70;118.99
66312;HTU21D;53114;51.138;6.008;2022-09-09T15:36:23;20.86;118.99
66312;HTU21D;53114;51.138;6.008;2022-09-09T15:38:50;20.90;118.99
66312;HTU21D;53114;51.138;6.008;2022-09-09T15:41:18;20.90;118.99
66312;HTU21D;53114;51.138;6.008;2022-09-09T15:43:47;20.92;118.99
66312;HTU21D;53114;51.138;6.008;2022-09-09T15:48:46;20.92;118.99
66312;HTU21D;53114;51.138;6.008;2022-09-09T15:51:13;21.08;118.99
66312;HTU21D;53114;51.138;6.008;2022-09-09T15:53:39;21.22;118.99
66312;HTU21D;53114;51.138;6.008;2022-09-09T15:56:06;21.30;118.99
66312;HTU21D;53114;51.138;6.008;2022-09-09T15:58:33;21.31;118.99
66312;HTU21D;53114;51.138;6.008;2022-09-09T16:01:06;21.23;118.99
66312;HTU21D;53114;51.138;6.008;2022-09-09T16:03:37;21.13;118.99
66312;HTU21D;53114;51.138;6.008;2022-09-09T16:06:04;21.01;118.99
66312;HTU21D;53114;51.138;6.008;2022-09-09T16:08:41;20.96;118.99
66312;HTU21D;53114;51.138;6.008;2022-09-09T16:11:16;20.99;118.99
66312;HTU21D;53114;51.138;6.008;2022-09-09T16:13:44;20.96;118.99
66312;HTU21D;53114;51.138;6.008;2022-09-09T16:16:15;20.91;118.99
66312;HTU21D;53114;51.138;6.008;2022-09-09T16:18:46;20.87;118.99
66312;HTU21D;53114;51.138;6.008;2022-09-09T16:21:20;20.84;118.99
66312;HTU21D;53114;51.138;6.008;2022-09-09T16:23:46;20.81;118.99
66312;HTU21D;53114;51.138;6.008;2022-09-09T16:26:14;20.73;118.99
66312;HTU21D;53114;51.138;6.008;2022-09-09T16:28:41;20.72;118.99
66312;HTU21D;53114;51.138;6.008;2022-09-09T16:31:09;20.72;118.99
66312;HTU21D;53114;51.138;6.008;2022-09-09T16:33:36;20.70;118.99
66312;HTU21D;53114;51.138;6.008;2022-09-09T16:36:10;20.70;118.99
66312;HTU21D;53114;51.138;6.008;2022-09-09T16:38:38;20.80;118.99
66312;HTU21D;53114;51.138;6.008;2022-09-09T16:41:06;20.91;118.99
66312;HTU21D;53114;51.138;6.008;2022-09-09T16:43:33;21.00;118.99
66312;HTU21D;53114;51.138;6.008;2022-09-09T16:45:59;20.91;118.99
66312;HTU21D;53114;51.138;6.008;2022-09-09T16:48:32;20.83;118.99
66312;HTU21D;53114;51.138;6.008;2022-09-09T16:51:05;20.79;118.99
66312;HTU21D;53114;51.138;6.008;2022-09-09T16:53:32;20.71;118.99
66312;HTU21D;53114;51.138;6.008;2022-09-09T16:56:05;20.54;118.99
66312;HTU21D;53114;51.138;6.008;2022-09-09T16:58:31;20.37;118.99
66312;HTU21D;53114;51.138;6.008;2022-09-09T17:00:58;20.19;118.99
66312;HTU21D;53114;51.138;6.008;2022-09-09T17:03:24;20.06;118.99
66312;HTU21D;53114;51.138;6.008;2022-09-09T17:05:50;19.92;118.99
66312;HTU21D;53114;51.138;6.008;2022-09-09T17:08:16;19.80;118.99
66312;HTU21D;53114;51.138;6.008;2022-09-09T17:10:42;19.70;118.99
66312;HTU21D;53114;51.138;6.008;2022-09-09T17:13:08;19.63;118.99
66312;HTU21D;53114;51.138;6.008;2022-09-09T17:15:40;19.58;118.99
66312;HTU21D;53114;51.138;6.008;2022-09-09T17:18:12;19.53;118.99
66312;HTU21D;53114;51.138;6.008;2022-09-09T17:20:40;19.48;118.99
66312;HTU21D;53114;51.138;6.008;2022-09-09T17:23:11;19.42;118.99
66312;HTU21D;53114;51.138;6.008;2022-09-09T17:25:41;19.36;118.99
66312;HTU21D;53114;51.138;6.008;2022-09-09T17:28:07;19.29;118.99
66312;HTU21D;53114;51.138;6.008;2022-09-09T17:30:36;19.22;118.99